createdAt,value
2018-10-12T00:01:35.556Z,15.70
2018-10-12T00:04:03.825Z,15.60
2018-10-12T00:06:32.065Z,15.70
2018-10-12T00:09:00.669Z,15.70
2018-10-12T00:11:28.825Z,15.60
2018-10-12T00:13:57.013Z,15.60
2018-10-12T00:16:25.284Z,15.60
2018-10-12T00:18:53.484Z,15.50
2018-10-12T00:21:21.685Z,15.50
2018-10-12T00:23:49.909Z,15.30
2018-10-12T00:26:18.108Z,15.30
2018-10-12T00:28:46.441Z,15.30
2018-10-12T00:31:14.684Z,15.30
2018-10-12T00:33:42.840Z,15.30
2018-10-12T00:36:11.016Z,15.30
2018-10-12T00:38:39.199Z,15.30
2018-10-12T00:41:07.657Z,15.20
2018-10-12T00:43:35.860Z,15.20
2018-10-12T00:46:04.058Z,15.10
2018-10-12T00:48:32.244Z,15.20
2018-10-12T00:51:00.380Z,15.20
2018-10-12T00:53:28.592Z,15.20
2018-10-12T00:55:56.792Z,15.20
2018-10-12T00:58:24.954Z,15.10
2018-10-12T01:00:53.161Z,15.10
2018-10-12T01:03:21.328Z,15.20
2018-10-12T01:05:49.533Z,15.20
2018-10-12T01:08:17.807Z,15.20
2018-10-12T01:10:46.009Z,15.30
2018-10-12T01:13:14.305Z,15.20
2018-10-12T01:15:42.536Z,15.20
2018-10-12T01:18:10.737Z,15.20
2018-10-12T01:20:39.097Z,15.20
2018-10-12T01:23:07.415Z,15.10
2018-10-12T01:25:35.705Z,15.20
2018-10-12T01:28:04.033Z,15.10
2018-10-12T01:30:32.240Z,15.10
2018-10-12T01:33:02.461Z,15.10
2018-10-12T01:35:30.656Z,15.10
2018-10-12T01:37:59.524Z,15.10
2018-10-12T01:40:28.152Z,15.10
2018-10-12T01:42:56.397Z,15.10
2018-10-12T01:45:24.652Z,15.10
2018-10-12T01:47:52.933Z,15.10
2018-10-12T01:50:21.148Z,15.10
2018-10-12T01:52:49.417Z,15.10
2018-10-12T01:55:17.596Z,15.10
2018-10-12T01:57:45.818Z,15.20
2018-10-12T02:00:13.985Z,15.20
2018-10-12T02:02:42.420Z,15.20
2018-10-12T02:05:10.654Z,15.10
2018-10-12T02:07:38.876Z,15.00
2018-10-12T02:10:07.166Z,15.10
2018-10-12T02:12:35.325Z,15.00
2018-10-12T02:15:03.823Z,15.10
2018-10-12T02:17:32.037Z,15.00
2018-10-12T02:20:00.250Z,15.00
2018-10-12T02:22:28.444Z,15.00
2018-10-12T02:24:56.592Z,15.00
2018-10-12T02:27:24.864Z,15.10
2018-10-12T02:29:53.062Z,15.10
2018-10-12T02:32:21.250Z,15.10
2018-10-12T02:34:49.401Z,15.00
2018-10-12T02:37:17.596Z,15.00
2018-10-12T02:39:45.789Z,15.10
2018-10-12T02:42:13.992Z,15.00
2018-10-12T02:44:42.197Z,15.00
2018-10-12T02:47:10.389Z,14.90
2018-10-12T02:49:38.580Z,14.90
2018-10-12T02:52:07.108Z,14.90
2018-10-12T02:54:35.281Z,14.90
2018-10-12T02:57:03.472Z,14.90
2018-10-12T02:59:31.612Z,14.90
2018-10-12T03:01:59.825Z,15.00
2018-10-12T03:04:28.022Z,15.00
2018-10-12T03:06:56.181Z,15.10
2018-10-12T03:09:24.394Z,15.10
2018-10-12T03:11:55.472Z,15.10
2018-10-12T03:14:24.873Z,15.10
2018-10-12T03:16:53.071Z,15.00
2018-10-12T03:19:21.272Z,15.00
2018-10-12T03:21:49.472Z,14.90
2018-10-12T03:24:17.636Z,14.90
2018-10-12T03:26:45.905Z,14.90
2018-10-12T03:29:14.153Z,14.90
2018-10-12T03:31:42.356Z,15.00
2018-10-12T03:34:10.629Z,15.00
2018-10-12T03:36:39.136Z,15.00
2018-10-12T03:39:07.910Z,15.00
2018-10-12T03:41:42.701Z,15.00
2018-10-12T03:44:10.936Z,15.00
2018-10-12T03:46:39.478Z,15.00
2018-10-12T03:49:07.749Z,15.10
2018-10-12T03:51:35.964Z,15.00
2018-10-12T03:54:04.150Z,15.00
2018-10-12T03:56:32.393Z,15.00
2018-10-12T03:59:00.577Z,15.00
2018-10-12T04:01:28.786Z,15.00
2018-10-12T04:03:57.013Z,14.90
2018-10-12T04:06:25.269Z,15.00
2018-10-12T04:08:53.484Z,14.90
2018-10-12T04:11:21.634Z,14.80
2018-10-12T04:13:49.859Z,14.70
2018-10-12T04:16:18.025Z,14.60
2018-10-12T04:18:46.261Z,14.50
2018-10-12T04:21:14.451Z,14.40
2018-10-12T04:23:42.605Z,14.30
2018-10-12T04:26:11.006Z,14.30
2018-10-12T04:28:39.237Z,14.20
2018-10-12T04:31:07.433Z,14.20
2018-10-12T04:33:35.633Z,14.10
2018-10-12T04:36:03.902Z,14.10
2018-10-12T04:39:41.497Z,14.00
2018-10-12T04:42:09.673Z,14.00
2018-10-12T04:44:37.981Z,13.90
2018-10-12T04:47:06.927Z,13.80
2018-10-12T04:49:35.701Z,13.80
2018-10-12T04:52:04.028Z,13.70
2018-10-12T04:54:32.270Z,13.70
2018-10-12T04:57:00.485Z,13.70
2018-10-12T04:59:29.242Z,13.60
2018-10-12T05:01:57.552Z,13.50
2018-10-12T05:04:25.816Z,13.30
2018-10-12T05:06:54.041Z,13.20
2018-10-12T05:09:22.265Z,13.20
2018-10-12T05:11:50.501Z,13.30
2018-10-12T05:14:18.697Z,13.30
2018-10-12T05:16:46.942Z,13.40
2018-10-12T05:19:15.160Z,13.30
2018-10-12T05:21:43.350Z,13.30
2018-10-12T05:24:11.543Z,13.20
2018-10-12T05:26:39.769Z,13.20
2018-10-12T05:29:08.005Z,13.20
2018-10-12T05:31:36.292Z,13.30
2018-10-12T05:34:04.492Z,13.50
2018-10-12T05:36:32.664Z,13.50
2018-10-12T05:39:00.856Z,13.40
2018-10-12T05:41:29.049Z,13.30
2018-10-12T05:43:57.232Z,13.30
2018-10-12T05:46:25.465Z,13.20
2018-10-12T05:49:04.717Z,13.20
2018-10-12T05:51:33.211Z,13.10
2018-10-12T05:54:01.481Z,13.00
2018-10-12T05:56:31.532Z,13.10
2018-10-12T05:59:00.446Z,13.10
2018-10-12T06:01:28.795Z,13.20
2018-10-12T06:03:56.988Z,13.20
2018-10-12T06:06:25.204Z,13.20
2018-10-12T06:08:54.696Z,13.30
2018-10-12T06:11:23.087Z,13.30
2018-10-12T06:13:51.241Z,13.40
2018-10-12T06:16:19.445Z,13.60
2018-10-12T06:18:47.638Z,13.90
2018-10-12T06:21:15.834Z,14.30
2018-10-12T06:23:44.021Z,14.60
2018-10-12T06:26:12.511Z,14.70
2018-10-12T06:28:40.765Z,14.80
2018-10-12T06:31:09.572Z,14.90
2018-10-12T06:33:37.805Z,15.10
2018-10-12T06:36:06.061Z,15.30
2018-10-12T06:38:34.230Z,15.40
2018-10-12T06:41:02.526Z,15.40
2018-10-12T06:43:30.700Z,15.40
2018-10-12T06:45:59.116Z,15.40
2018-10-12T06:48:27.317Z,15.50
2018-10-12T06:50:55.573Z,15.50
2018-10-12T06:53:23.785Z,15.60
2018-10-12T06:55:52.018Z,15.80
2018-10-12T06:58:20.248Z,15.80
2018-10-12T07:00:48.509Z,15.90
2018-10-12T07:03:16.829Z,16.30
2018-10-12T07:05:45.214Z,16.70
2018-10-12T07:08:13.482Z,17.20
2018-10-12T07:10:41.745Z,17.50
2018-10-12T07:13:09.940Z,17.80
2018-10-12T07:15:38.248Z,18.10
2018-10-12T07:18:06.451Z,18.40
2018-10-12T07:20:34.733Z,18.60
2018-10-12T07:23:02.938Z,18.80
2018-10-12T07:25:31.125Z,19.00
2018-10-12T07:27:59.349Z,19.10
2018-10-12T07:30:27.578Z,19.20
2018-10-12T07:32:55.791Z,19.40
2018-10-12T07:35:24.009Z,19.40
2018-10-12T07:37:52.189Z,19.30
2018-10-12T07:40:20.389Z,19.40
2018-10-12T07:42:48.649Z,19.50
2018-10-12T07:45:16.856Z,19.70
2018-10-12T07:47:45.065Z,19.70
2018-10-12T07:50:13.285Z,19.90
2018-10-12T07:52:41.495Z,20.00
2018-10-12T07:55:09.665Z,20.00
2018-10-12T07:57:37.864Z,20.20
2018-10-12T08:00:06.802Z,20.00
2018-10-12T08:02:35.016Z,20.00
2018-10-12T08:05:03.197Z,20.00
2018-10-12T08:07:31.420Z,20.20
2018-10-12T08:09:59.605Z,20.30
2018-10-12T08:12:27.817Z,20.40
2018-10-12T08:14:56.034Z,20.40
2018-10-12T08:17:24.254Z,20.40
2018-10-12T08:19:52.580Z,20.60
2018-10-12T08:22:20.781Z,20.70
2018-10-12T08:24:49.005Z,20.70
2018-10-12T08:27:17.224Z,20.80
2018-10-12T08:29:45.433Z,20.90
2018-10-12T08:32:13.824Z,21.00
2018-10-12T08:34:41.980Z,21.10
2018-10-12T08:37:10.181Z,21.10
2018-10-12T08:39:38.373Z,21.20
2018-10-12T08:42:06.732Z,21.30
2018-10-12T08:44:34.937Z,21.40
2018-10-12T08:47:03.138Z,21.50
2018-10-12T08:49:31.354Z,21.50
2018-10-12T08:51:59.575Z,21.40
2018-10-12T08:54:27.793Z,21.50
2018-10-12T08:56:55.998Z,21.50
2018-10-12T08:59:24.198Z,21.60
2018-10-12T09:01:52.409Z,21.90
2018-10-12T09:04:20.637Z,21.90
2018-10-12T09:06:48.868Z,22.00
2018-10-12T09:09:17.066Z,22.00
2018-10-12T09:11:45.269Z,22.20
2018-10-12T09:14:13.503Z,22.40
2018-10-12T09:16:41.684Z,22.50
2018-10-12T09:19:09.905Z,22.60
2018-10-12T09:21:38.145Z,22.70
2018-10-12T09:24:06.352Z,22.70
2018-10-12T09:26:34.545Z,22.60
2018-10-12T09:29:02.792Z,22.50
2018-10-12T09:31:31.080Z,22.20
2018-10-12T09:33:59.268Z,22.00
2018-10-12T09:36:27.477Z,22.00
2018-10-12T09:38:55.715Z,22.10
2018-10-12T09:41:23.892Z,22.10
2018-10-12T09:43:52.094Z,22.40
2018-10-12T09:46:20.996Z,22.40
2018-10-12T09:48:49.213Z,22.40
2018-10-12T09:51:17.477Z,22.60
2018-10-12T09:53:45.638Z,22.60
2018-10-12T09:56:13.837Z,22.60
2018-10-12T09:58:42.025Z,22.60
2018-10-12T10:01:15.916Z,22.60
2018-10-12T10:03:49.470Z,22.90
2018-10-12T10:06:17.684Z,22.90
2018-10-12T10:08:45.951Z,22.70
2018-10-12T10:11:14.130Z,22.90
2018-10-12T10:13:42.378Z,22.90
2018-10-12T10:16:10.648Z,23.10
2018-10-12T10:18:38.930Z,23.30
2018-10-12T10:21:07.133Z,23.40
2018-10-12T10:23:35.425Z,23.30
2018-10-12T10:26:03.608Z,23.30
2018-10-12T10:28:31.817Z,23.40
2018-10-12T10:31:00.021Z,23.60
2018-10-12T10:33:28.225Z,23.70
2018-10-12T10:35:56.437Z,23.60
2018-10-12T10:38:24.622Z,23.60
2018-10-12T10:40:52.820Z,23.80
2018-10-12T10:43:20.989Z,23.60
2018-10-12T10:45:49.198Z,23.50
2018-10-12T10:48:17.912Z,23.60
2018-10-12T10:50:46.807Z,23.60
2018-10-12T10:53:16.247Z,23.70
2018-10-12T10:55:45.458Z,23.60
2018-10-12T10:58:14.593Z,23.70
2018-10-12T11:00:43.463Z,23.90
2018-10-12T11:03:11.724Z,23.80
2018-10-12T11:05:39.923Z,23.70
2018-10-12T11:08:08.193Z,23.40
2018-10-12T11:10:36.357Z,23.40
2018-10-12T11:13:04.618Z,23.50
2018-10-12T11:15:32.827Z,23.60
2018-10-12T11:18:00.981Z,24.00
2018-10-12T11:20:29.200Z,24.00
2018-10-12T11:22:57.361Z,24.00
2018-10-12T11:25:25.614Z,24.00
2018-10-12T11:27:53.889Z,24.00
2018-10-12T11:30:22.157Z,24.00
2018-10-12T11:32:50.558Z,24.10
2018-10-12T11:35:18.771Z,24.00
2018-10-12T11:37:47.073Z,24.00
2018-10-12T11:40:15.289Z,24.10
2018-10-12T11:42:54.589Z,24.10
2018-10-12T11:45:22.890Z,24.20
2018-10-12T11:47:51.378Z,24.30
2018-10-12T11:50:19.625Z,24.40
2018-10-12T11:52:47.847Z,24.50
2018-10-12T11:55:16.056Z,24.60
2018-10-12T11:57:44.232Z,24.80
2018-10-12T12:00:12.453Z,25.00
2018-10-12T12:02:40.657Z,25.20
2018-10-12T12:05:08.905Z,25.20
2018-10-12T12:07:37.193Z,25.10
2018-10-12T12:10:05.471Z,25.10
2018-10-12T12:12:33.680Z,25.20
2018-10-12T12:15:01.942Z,25.00
2018-10-12T12:17:30.159Z,24.70
2018-10-12T12:19:58.363Z,24.80
2018-10-12T12:22:26.610Z,24.90
2018-10-12T12:24:55.109Z,24.90
2018-10-12T12:27:23.388Z,24.70
2018-10-12T12:29:51.611Z,24.90
2018-10-12T12:32:19.853Z,24.80
2018-10-12T12:34:48.248Z,25.00
2018-10-12T12:37:16.456Z,25.10
2018-10-12T12:39:44.673Z,25.30
2018-10-12T12:42:12.913Z,25.30
2018-10-12T12:44:41.077Z,25.30
2018-10-12T12:47:09.320Z,25.40
2018-10-12T12:49:37.514Z,25.40
2018-10-12T12:52:05.741Z,25.60
2018-10-12T12:54:33.941Z,25.80
2018-10-12T12:57:02.165Z,25.60
2018-10-12T12:59:30.393Z,25.60
2018-10-12T13:01:58.575Z,25.70
2018-10-12T13:04:26.821Z,25.70
2018-10-12T13:06:55.182Z,25.50
2018-10-12T13:09:30.192Z,25.30
2018-10-12T13:11:58.394Z,25.60
2018-10-12T13:14:29.501Z,25.70
2018-10-12T13:16:57.747Z,25.60
2018-10-12T13:19:25.913Z,25.80
2018-10-12T13:21:54.243Z,25.80
2018-10-12T13:24:22.651Z,25.80
2018-10-12T13:26:50.813Z,25.60
2018-10-12T13:29:19.501Z,25.70
2018-10-12T13:31:48.014Z,25.60
2018-10-12T13:34:16.241Z,25.80
2018-10-12T13:36:44.436Z,25.80
2018-10-12T13:39:13.231Z,25.80
2018-10-12T13:41:41.521Z,25.80
2018-10-12T13:44:10.499Z,25.80
2018-10-12T13:46:38.835Z,25.70
2018-10-12T13:49:07.377Z,25.70
2018-10-12T13:51:35.599Z,25.90
2018-10-12T13:54:03.876Z,25.80
2018-10-12T13:56:32.141Z,25.90
2018-10-12T13:59:00.359Z,25.90
2018-10-12T14:01:28.541Z,26.10
2018-10-12T14:03:56.757Z,26.10
2018-10-12T14:06:24.979Z,26.00
2018-10-12T14:08:54.571Z,25.90
2018-10-12T14:11:22.910Z,26.00
2018-10-12T14:13:51.109Z,26.00
2018-10-12T14:16:19.322Z,25.80
2018-10-12T14:18:47.844Z,26.00
2018-10-12T14:21:15.905Z,25.90
2018-10-12T14:23:44.122Z,25.90
2018-10-12T14:26:12.314Z,25.90
2018-10-12T14:28:40.541Z,26.00
2018-10-12T14:31:09.757Z,26.00
2018-10-12T14:33:37.979Z,25.50
2018-10-12T14:36:06.242Z,25.00
2018-10-12T14:38:34.466Z,25.00
2018-10-12T14:41:02.696Z,25.20
2018-10-12T14:43:30.856Z,25.40
2018-10-12T14:45:59.118Z,25.40
2018-10-12T14:48:27.292Z,25.50
2018-10-12T14:50:55.512Z,25.30
2018-10-12T14:53:23.735Z,25.40
2018-10-12T14:55:52.328Z,25.40
2018-10-12T14:58:20.540Z,25.40
2018-10-12T15:00:48.745Z,25.30
2018-10-12T15:03:16.957Z,25.20
2018-10-12T15:05:45.130Z,25.20
2018-10-12T15:08:13.358Z,25.10
2018-10-12T15:10:41.589Z,24.80
2018-10-12T15:13:09.745Z,24.50
2018-10-12T15:15:38.165Z,24.30
2018-10-12T15:18:06.337Z,24.00
2018-10-12T15:20:34.605Z,23.70
2018-10-12T15:23:02.809Z,23.50
2018-10-12T15:25:31.034Z,23.20
2018-10-12T15:27:59.261Z,23.00
2018-10-12T15:30:27.499Z,22.80
2018-10-12T15:32:55.706Z,22.60
2018-10-12T15:35:23.975Z,22.40
2018-10-12T15:37:52.213Z,22.30
2018-10-12T15:40:20.530Z,22.20
2018-10-12T15:42:48.778Z,22.10
2018-10-12T15:45:17.024Z,22.00
2018-10-12T15:47:45.226Z,22.00
2018-10-12T15:50:13.434Z,21.80
2018-10-12T15:52:41.734Z,21.80
2018-10-12T15:55:10.058Z,21.70
2018-10-12T15:57:38.273Z,21.60
2018-10-12T16:00:06.528Z,21.50
2018-10-12T16:02:34.744Z,21.40
2018-10-12T16:05:02.989Z,21.30
2018-10-12T16:07:31.201Z,21.20
2018-10-12T16:09:59.629Z,21.10
2018-10-12T16:12:27.841Z,21.00
2018-10-12T16:14:56.063Z,20.90
2018-10-12T16:17:24.235Z,20.80
2018-10-12T16:19:52.449Z,20.70
2018-10-12T16:22:20.649Z,20.60
2018-10-12T16:24:59.693Z,20.50
2018-10-12T16:27:27.921Z,20.40
2018-10-12T16:29:56.109Z,20.30
2018-10-12T16:32:24.332Z,20.20
2018-10-12T16:34:52.529Z,20.10
2018-10-12T16:37:20.733Z,20.00
2018-10-12T16:39:48.912Z,19.90
2018-10-12T16:42:17.122Z,19.80
2018-10-12T16:44:45.335Z,19.70
2018-10-12T16:47:13.592Z,19.60
2018-10-12T16:49:41.749Z,19.40
2018-10-12T16:52:10.005Z,19.30
2018-10-12T16:54:38.196Z,19.20
2018-10-12T16:57:06.558Z,19.10
2018-10-12T16:59:34.782Z,19.00
2018-10-12T17:02:02.976Z,19.00
2018-10-12T17:04:31.209Z,19.00
2018-10-12T17:06:59.404Z,18.90
2018-10-12T17:09:27.608Z,18.80
2018-10-12T17:11:55.776Z,18.70
2018-10-12T17:14:24.009Z,18.70
2018-10-12T17:16:52.517Z,18.60
2018-10-12T17:19:20.715Z,18.50
2018-10-12T17:21:48.954Z,18.50
2018-10-12T17:24:17.138Z,18.50
2018-10-12T17:26:45.477Z,18.50
2018-10-12T17:29:13.706Z,18.50
2018-10-12T17:31:41.926Z,18.30
2018-10-12T17:34:10.090Z,18.20
2018-10-12T17:36:38.295Z,18.20
2018-10-12T17:39:09.621Z,18.10
2018-10-12T17:41:37.975Z,18.00
2018-10-12T17:44:06.181Z,17.90
2018-10-12T17:46:35.182Z,17.90
2018-10-12T17:49:03.380Z,17.90
2018-10-12T17:51:31.633Z,18.00
2018-10-12T17:53:59.897Z,18.00
2018-10-12T17:56:28.144Z,17.90
2018-10-12T17:58:56.426Z,17.90
2018-10-12T18:01:24.669Z,17.80
2018-10-12T18:03:52.873Z,17.80
2018-10-12T18:06:21.102Z,17.80
2018-10-12T18:08:49.672Z,17.90
2018-10-12T18:11:17.845Z,17.80
2018-10-12T18:13:46.101Z,17.80
2018-10-12T18:16:14.577Z,17.80
2018-10-12T18:18:42.784Z,17.70
2018-10-12T18:21:11.064Z,17.40
2018-10-12T18:23:39.263Z,17.30
2018-10-12T18:26:14.147Z,17.30
2018-10-12T18:28:42.402Z,17.20
2018-10-12T18:31:10.685Z,17.20
2018-10-12T18:33:38.876Z,17.20
2018-10-12T18:36:07.125Z,17.10
2018-10-12T18:38:35.337Z,17.10
2018-10-12T18:41:03.581Z,17.00
2018-10-12T18:43:31.732Z,16.90
2018-10-12T18:46:01.425Z,16.90
2018-10-12T18:48:29.637Z,16.90
2018-10-12T18:50:57.912Z,16.90
2018-10-12T18:53:26.175Z,16.80
2018-10-12T18:55:54.454Z,16.70
2018-10-12T18:58:22.665Z,16.60
2018-10-12T19:00:50.992Z,16.60
2018-10-12T19:03:19.236Z,16.50
2018-10-12T19:05:47.409Z,16.50
2018-10-12T19:08:15.617Z,16.40
2018-10-12T19:10:43.829Z,16.30
2018-10-12T19:13:12.013Z,16.20
2018-10-12T19:15:40.509Z,16.20
2018-10-12T19:18:08.683Z,16.20
2018-10-12T19:20:36.958Z,16.30
2018-10-12T19:23:05.362Z,16.40
2018-10-12T19:25:33.609Z,16.30
2018-10-12T19:28:01.841Z,16.40
2018-10-12T19:30:30.130Z,16.40
2018-10-12T19:32:58.474Z,16.40
2018-10-12T19:35:26.634Z,16.40
2018-10-12T19:37:54.997Z,16.30
2018-10-12T19:43:21.181Z,16.10
2018-10-12T19:45:49.453Z,16.10
2018-10-12T19:48:17.702Z,16.00
2018-10-12T19:50:46.369Z,16.00
2018-10-12T19:53:14.582Z,16.00
2018-10-12T19:55:42.809Z,16.10
2018-10-12T19:58:11.031Z,16.00
2018-10-12T20:00:39.286Z,16.00
2018-10-12T20:03:07.982Z,15.90
2018-10-12T20:05:36.209Z,15.70
2018-10-12T20:08:04.507Z,15.60
2018-10-12T20:10:32.774Z,15.60
2018-10-12T20:13:08.161Z,15.50
2018-10-12T20:15:36.413Z,15.50
2018-10-12T20:18:04.668Z,15.50
2018-10-12T20:20:32.921Z,15.40
2018-10-12T20:23:01.150Z,15.40
2018-10-12T20:25:29.433Z,15.40
2018-10-12T20:27:57.709Z,15.50
2018-10-12T20:30:25.970Z,15.40
2018-10-12T20:32:54.292Z,15.40
2018-10-12T20:35:22.625Z,15.40
2018-10-12T20:37:50.918Z,15.40
2018-10-12T20:40:19.201Z,15.30
2018-10-12T20:42:47.454Z,15.20
2018-10-12T20:45:15.717Z,15.20
2018-10-12T20:47:44.075Z,15.20
2018-10-12T20:50:12.585Z,15.30
2018-10-12T20:52:41.377Z,15.30
2018-10-12T20:55:10.038Z,15.20
2018-10-12T20:57:44.065Z,15.10
2018-10-12T21:00:13.032Z,15.00
2018-10-12T21:02:42.408Z,14.80
2018-10-12T21:05:10.977Z,14.70
2018-10-12T21:07:39.242Z,14.70
2018-10-12T21:10:07.723Z,14.70
2018-10-12T21:12:35.967Z,14.60
2018-10-12T21:15:04.652Z,14.60
2018-10-12T21:17:32.940Z,14.50
2018-10-12T21:20:01.485Z,14.40
2018-10-12T21:22:29.870Z,14.30
2018-10-12T21:24:58.161Z,14.10
2018-10-12T21:27:26.366Z,14.00
2018-10-12T21:29:54.614Z,14.00
2018-10-12T21:32:22.906Z,14.00
2018-10-12T21:34:51.128Z,14.10
2018-10-12T21:37:19.391Z,14.00
2018-10-12T21:39:47.591Z,14.10
2018-10-12T21:42:15.821Z,14.10
2018-10-12T21:44:44.068Z,14.00
2018-10-12T21:47:12.364Z,13.90
2018-10-12T21:49:40.613Z,13.90
2018-10-12T21:52:09.481Z,13.80
2018-10-12T21:54:37.737Z,13.90
2018-10-12T21:57:06.020Z,13.90
2018-10-12T21:59:34.300Z,13.90
2018-10-12T22:02:02.573Z,14.00
2018-10-12T22:04:30.822Z,14.10
2018-10-12T22:06:59.080Z,14.00
2018-10-12T22:09:27.273Z,14.00
2018-10-12T22:11:55.529Z,14.00
2018-10-12T22:14:23.721Z,14.00
2018-10-12T22:16:51.985Z,14.00
2018-10-12T22:19:20.372Z,14.10
2018-10-12T22:21:48.554Z,14.00
2018-10-12T22:24:16.811Z,14.00
2018-10-12T22:26:45.011Z,14.10
2018-10-12T22:29:13.299Z,14.10
2018-10-12T22:31:41.521Z,14.10
2018-10-12T22:34:09.749Z,14.10
2018-10-12T22:36:38.036Z,14.10
2018-10-12T22:39:08.160Z,14.00
2018-10-12T22:41:36.526Z,14.00
2018-10-12T22:44:04.767Z,13.90
2018-10-12T22:46:33.398Z,13.80
2018-10-12T22:49:01.636Z,13.70
2018-10-12T22:51:29.867Z,13.50
2018-10-12T22:53:58.090Z,13.60
2018-10-12T22:56:26.330Z,13.50
2018-10-12T22:58:54.534Z,13.50
2018-10-12T23:01:22.758Z,13.50
2018-10-12T23:03:50.966Z,13.50
2018-10-12T23:06:19.258Z,13.60
2018-10-12T23:08:47.475Z,13.70
2018-10-12T23:11:15.798Z,13.70
2018-10-12T23:13:43.990Z,13.70
2018-10-12T23:16:12.249Z,13.70
2018-10-12T23:18:40.546Z,13.60
2018-10-12T23:21:08.699Z,13.50
2018-10-12T23:23:36.951Z,13.40
2018-10-12T23:26:05.190Z,13.30
2018-10-12T23:28:33.470Z,13.20
2018-10-12T23:31:01.713Z,13.10
2018-10-12T23:33:41.097Z,13.10
2018-10-12T23:36:09.350Z,13.10
2018-10-12T23:38:37.629Z,13.10
2018-10-12T23:41:05.992Z,13.00
2018-10-12T23:43:34.460Z,12.90
2018-10-12T23:46:02.703Z,12.90
2018-10-12T23:48:30.974Z,12.90
2018-10-12T23:50:59.177Z,12.90
2018-10-12T23:53:27.472Z,12.80
2018-10-12T23:55:55.747Z,12.80
2018-10-12T23:58:23.999Z,12.70
